createdAt,value
2022-08-22T00:00:22.147Z,61.56
2022-08-22T00:03:07.261Z,61.06
2022-08-22T00:03:08.204Z,59.94
2022-08-22T00:05:47.969Z,61.28
2022-08-22T00:08:23.360Z,61.07
2022-08-22T00:11:08.702Z,61.49
2022-08-22T00:14:02.230Z,62.83
2022-08-22T00:16:49.713Z,62.50
2022-08-22T00:19:25.944Z,62.59
2022-08-22T00:22:13.477Z,62.61
2022-08-22T00:24:49.071Z,62.41
2022-08-22T00:27:22.315Z,62.08
2022-08-22T00:30:03.968Z,62.44
2022-08-22T00:32:41.004Z,62.62
2022-08-22T00:35:22.693Z,62.46
2022-08-22T00:38:08.349Z,62.97
2022-08-22T00:40:59.453Z,62.91
2022-08-22T00:43:48.903Z,63.22
2022-08-22T00:46:37.123Z,63.26
2022-08-22T00:49:35.997Z,64.17
2022-08-22T00:52:37.410Z,64.10
2022-08-22T00:55:20.386Z,64.48
2022-08-22T00:58:09.592Z,64.34
2022-08-22T01:00:44.725Z,63.87
2022-08-22T01:03:49.334Z,63.70
2022-08-22T01:06:21.564Z,64.19
2022-08-22T01:09:15.181Z,63.62
2022-08-22T01:12:05.367Z,63.42
2022-08-22T01:15:10.101Z,63.29
2022-08-22T01:18:01.444Z,63.66
2022-08-22T01:20:42.024Z,64.65
2022-08-22T01:23:32.997Z,65.24
2022-08-22T01:26:22.558Z,64.44
2022-08-22T01:29:33.268Z,64.34
2022-08-22T01:32:08.520Z,64.61
2022-08-22T01:35:02.655Z,64.04
2022-08-22T01:37:50.877Z,64.43
2022-08-22T01:40:19.947Z,63.80
2022-08-22T01:43:06.114Z,64.53
2022-08-22T01:45:50.256Z,65.38
2022-08-22T01:48:30.720Z,64.97
2022-08-22T01:51:19.927Z,65.29
2022-08-22T01:54:05.588Z,65.60
2022-08-22T01:56:40.003Z,66.59
2022-08-22T01:59:14.938Z,67.27
2022-08-22T02:02:01.077Z,66.85
2022-08-22T02:04:39.488Z,66.82
2022-08-22T02:07:19.392Z,67.75
2022-08-22T02:10:19.270Z,67.51
2022-08-22T02:13:23.137Z,68.17
2022-08-22T02:16:03.603Z,67.93
2022-08-22T02:18:46.296Z,68.27
2022-08-22T02:21:37.349Z,68.07
2022-08-22T02:24:19.187Z,68.65
2022-08-22T02:27:10.829Z,68.67
2022-08-22T02:30:09.879Z,68.38
2022-08-22T02:32:43.574Z,69.17
2022-08-22T02:35:12.682Z,68.91
2022-08-22T02:37:55.202Z,69.16
2022-08-22T02:40:37.711Z,68.93
2022-08-22T02:43:24.058Z,69.85
2022-08-22T02:45:59.532Z,70.04
2022-08-22T02:48:39.015Z,70.07
2022-08-22T02:51:24.296Z,70.50
2022-08-22T02:54:28.368Z,71.25
2022-08-22T02:57:14.226Z,70.73
2022-08-22T03:00:31.447Z,70.99
2022-08-22T03:02:59.242Z,71.21
2022-08-22T03:05:41.865Z,70.76
2022-08-22T03:08:17.092Z,71.58
2022-08-22T03:10:50.486Z,71.85
2022-08-22T03:13:25.856Z,71.42
2022-08-22T03:16:00.490Z,72.89
2022-08-22T03:18:54.627Z,72.49
2022-08-22T03:21:52.163Z,72.68
2022-08-22T03:24:37.406Z,72.70
2022-08-22T03:27:49.463Z,73.20
2022-08-22T03:30:21.595Z,73.27
2022-08-22T03:32:59.461Z,74.23
2022-08-22T03:35:42.154Z,74.39
2022-08-22T03:38:26.933Z,74.65
2022-08-22T03:41:15.223Z,73.72
2022-08-22T03:44:13.244Z,75.23
2022-08-22T03:46:55.789Z,74.81
2022-08-22T03:49:59.382Z,75.14
2022-08-22T03:53:01.253Z,75.26
2022-08-22T03:55:56.704Z,74.89
2022-08-22T03:58:56.446Z,75.00
2022-08-22T04:01:44.627Z,74.91
2022-08-22T04:04:10.988Z,75.10
2022-08-22T04:06:56.556Z,74.04
2022-08-22T04:09:44.049Z,75.49
2022-08-22T04:12:41.299Z,75.64
2022-08-22T04:15:29.767Z,75.59
2022-08-22T04:18:40.594Z,76.09
2022-08-22T04:21:33.108Z,76.56
2022-08-22T04:24:21.104Z,77.22
2022-08-22T04:26:59.793Z,78.19
2022-08-22T04:29:45.183Z,74.63
2022-08-22T04:32:15.054Z,74.72
2022-08-22T04:34:48.639Z,76.91
2022-08-22T04:37:22.942Z,77.81
2022-08-22T04:40:07.371Z,77.80
2022-08-22T04:42:49.847Z,78.36
2022-08-22T04:45:37.571Z,78.46
2022-08-22T04:48:22.613Z,79.25
2022-08-22T04:51:03.202Z,78.74
2022-08-22T04:54:05.555Z,78.85
2022-08-22T04:56:54.741Z,78.69
2022-08-22T04:59:24.103Z,78.85
2022-08-22T05:01:55.103Z,77.71
2022-08-22T05:04:29.146Z,78.05
2022-08-22T05:07:05.898Z,78.55
2022-08-22T05:09:35.807Z,78.94
2022-08-22T05:12:09.098Z,78.65
2022-08-22T05:14:41.115Z,77.06
2022-08-22T05:17:10.657Z,77.21
2022-08-22T05:19:40.592Z,74.85
2022-08-22T05:22:18.703Z,73.09
2022-08-22T05:24:49.661Z,70.62
2022-08-22T05:27:22.035Z,69.06
2022-08-22T05:29:53.705Z,67.80
2022-08-22T05:32:29.122Z,66.94
2022-08-22T05:35:02.048Z,65.65
2022-08-22T05:37:40.431Z,65.26
2022-08-22T05:40:10.715Z,64.25
2022-08-22T05:42:37.556Z,62.88
2022-08-22T05:45:11.575Z,63.21
2022-08-22T05:47:42.907Z,63.34
2022-08-22T05:50:20.212Z,62.34
2022-08-22T05:53:08.787Z,62.77
2022-08-22T05:55:41.599Z,61.50
2022-08-22T05:58:27.010Z,61.60
2022-08-22T06:01:25.378Z,61.76
2022-08-22T06:04:06.912Z,62.38
2022-08-22T06:06:50.873Z,63.51
2022-08-22T06:09:35.425Z,63.14
2022-08-22T06:12:18.237Z,63.05
2022-08-22T06:14:54.804Z,64.49
2022-08-22T06:17:34.864Z,64.70
2022-08-22T06:20:05.679Z,64.56
2022-08-22T06:22:41.709Z,64.46
2022-08-22T06:25:30.325Z,65.47
2022-08-22T06:28:01.558Z,65.92
2022-08-22T06:30:28.880Z,65.96
2022-08-22T06:33:01.313Z,64.84
2022-08-22T06:35:57.426Z,65.35
2022-08-22T06:38:32.325Z,65.76
2022-08-22T06:41:02.952Z,66.50
2022-08-22T06:43:38.480Z,65.53
2022-08-22T06:46:07.294Z,65.23
2022-08-22T06:48:36.138Z,63.63
2022-08-22T06:51:07.013Z,63.72
2022-08-22T06:53:42.365Z,62.23
2022-08-22T06:56:21.591Z,61.34
2022-08-22T06:58:52.165Z,61.13
2022-08-22T07:01:24.424Z,61.82
2022-08-22T07:03:54.266Z,61.94
2022-08-22T07:06:41.188Z,61.79
2022-08-22T07:09:18.524Z,61.47
2022-08-22T07:11:45.460Z,61.28
2022-08-22T07:14:16.066Z,61.38
2022-08-22T07:16:56.661Z,60.52
2022-08-22T07:19:33.110Z,61.03
2022-08-22T07:22:10.414Z,59.35
2022-08-22T07:24:39.700Z,59.32
2022-08-22T07:27:15.930Z,59.85
2022-08-22T07:29:48.112Z,58.18
2022-08-22T07:32:44.574Z,58.77
2022-08-22T07:35:15.930Z,59.65
2022-08-22T07:37:45.073Z,58.61
2022-08-22T07:40:31.900Z,57.83
2022-08-22T07:43:35.779Z,56.93
2022-08-22T07:46:20.878Z,55.14
2022-08-22T07:49:08.001Z,55.16
2022-08-22T07:51:49.587Z,54.72
2022-08-22T07:54:43.850Z,53.60
2022-08-22T07:57:24.855Z,53.49
2022-08-22T07:59:54.232Z,53.66
2022-08-22T08:02:22.008Z,53.02
2022-08-22T08:04:51.431Z,52.90
2022-08-22T08:07:22.370Z,52.43
2022-08-22T08:10:14.273Z,51.58
2022-08-22T08:12:56.128Z,51.36
2022-08-22T08:15:30.357Z,52.04
2022-08-22T08:18:02.857Z,50.58
2022-08-22T08:20:30.337Z,50.02
2022-08-22T08:22:58.467Z,49.78
2022-08-22T08:25:31.738Z,49.71
2022-08-22T08:28:18.261Z,49.20
2022-08-22T08:30:56.429Z,49.04
2022-08-22T08:33:28.082Z,48.66
2022-08-22T08:36:05.690Z,48.91
2022-08-22T08:38:51.219Z,48.40
2022-08-22T08:41:44.244Z,47.47
2022-08-22T08:44:52.686Z,47.19
2022-08-22T08:47:27.822Z,46.91
2022-08-22T08:50:15.434Z,46.64
2022-08-22T08:53:31.392Z,47.17
2022-08-22T08:56:06.491Z,46.90
2022-08-22T08:58:47.768Z,45.51
2022-08-22T09:01:38.056Z,44.98
2022-08-22T09:04:29.940Z,45.35
2022-08-22T09:07:02.535Z,45.02
2022-08-22T09:10:08.373Z,44.85
2022-08-22T09:13:00.322Z,44.36
2022-08-22T09:16:05.230Z,44.50
2022-08-22T09:18:58.991Z,44.18
2022-08-22T09:21:33.611Z,44.06
2022-08-22T09:24:12.899Z,44.03
2022-08-22T09:27:08.680Z,42.96
2022-08-22T09:29:54.941Z,42.91
2022-08-22T09:32:52.409Z,42.46
2022-08-22T09:35:39.987Z,42.96
2022-08-22T09:38:25.745Z,42.49
2022-08-22T09:40:57.906Z,42.20
2022-08-22T09:43:44.724Z,40.33
2022-08-22T09:46:54.106Z,41.53
2022-08-22T09:49:34.771Z,42.19
2022-08-22T09:52:32.044Z,42.21
2022-08-22T09:55:11.731Z,41.16
2022-08-22T09:57:52.771Z,40.98
2022-08-22T10:00:22.705Z,40.22
2022-08-22T10:03:11.216Z,40.86
2022-08-22T10:05:48.257Z,40.99
2022-08-22T10:08:39.143Z,41.60
2022-08-22T10:11:08.409Z,41.85
2022-08-22T10:13:40.433Z,41.54
2022-08-22T10:16:20.385Z,41.77
2022-08-22T10:19:10.849Z,40.24
2022-08-22T10:22:10.450Z,39.68
2022-08-22T10:24:51.275Z,40.46
2022-08-22T10:27:28.965Z,40.62
2022-08-22T10:30:25.571Z,40.15
2022-08-22T10:33:09.467Z,39.01
2022-08-22T10:35:50.935Z,39.55
2022-08-22T10:38:25.033Z,39.96
2022-08-22T10:41:09.314Z,39.79
2022-08-22T10:43:56.568Z,39.32
2022-08-22T10:46:51.172Z,38.73
2022-08-22T10:49:51.150Z,38.52
2022-08-22T10:52:48.115Z,39.30
2022-08-22T10:55:25.530Z,39.06
2022-08-22T10:58:10.935Z,38.92
2022-08-22T11:00:46.101Z,37.15
2022-08-22T11:03:27.506Z,36.82
2022-08-22T11:06:27.934Z,36.05
2022-08-22T11:09:31.172Z,35.10
2022-08-22T11:12:19.721Z,34.20
2022-08-22T11:14:46.044Z,34.30
2022-08-22T11:17:54.419Z,34.29
2022-08-22T11:20:58.337Z,35.28
2022-08-22T11:23:42.511Z,35.26
2022-08-22T11:26:33.788Z,35.21
2022-08-22T11:29:13.966Z,33.34
2022-08-22T11:32:00.429Z,32.78
2022-08-22T11:34:34.189Z,33.23
2022-08-22T11:37:43.383Z,33.50
2022-08-22T11:40:26.914Z,33.51
2022-08-22T11:43:07.297Z,33.20
2022-08-22T11:45:51.840Z,32.88
2022-08-22T11:48:26.626Z,32.90
2022-08-22T11:51:16.582Z,32.08
2022-08-22T11:54:07.488Z,32.49
2022-08-22T11:56:48.957Z,31.84
2022-08-22T11:59:32.547Z,32.16
2022-08-22T12:02:08.830Z,30.93
2022-08-22T12:04:42.577Z,31.15
2022-08-22T12:07:28.767Z,30.59
2022-08-22T12:09:59.498Z,29.71
2022-08-22T12:12:44.174Z,30.23
2022-08-22T12:15:21.343Z,30.63
2022-08-22T12:18:19.926Z,29.84
2022-08-22T12:21:18.746Z,30.28
2022-08-22T12:24:11.186Z,30.73
2022-08-22T12:26:56.647Z,31.03
2022-08-22T12:29:48.455Z,31.19
2022-08-22T12:32:34.122Z,31.01
2022-08-22T12:35:30.099Z,30.36
2022-08-22T12:38:28.692Z,30.60
2022-08-22T12:41:28.391Z,30.10
2022-08-22T12:44:28.533Z,29.43
2022-08-22T12:47:13.231Z,29.19
2022-08-22T12:50:17.547Z,29.48
2022-08-22T12:53:00.593Z,29.80
2022-08-22T12:55:40.825Z,29.34
2022-08-22T12:58:33.900Z,29.38
2022-08-22T13:01:06.266Z,28.84
2022-08-22T13:03:43.980Z,28.68
2022-08-22T13:06:35.197Z,29.41
2022-08-22T13:09:18.526Z,29.26
2022-08-22T13:11:48.284Z,29.23
2022-08-22T13:14:25.631Z,28.80
2022-08-22T13:16:58.882Z,29.15
2022-08-22T13:19:44.297Z,29.16
2022-08-22T13:22:17.747Z,29.37
2022-08-22T13:24:56.655Z,28.74
2022-08-22T13:27:51.207Z,28.73
2022-08-22T13:30:26.607Z,28.63
2022-08-22T13:33:03.295Z,28.90
2022-08-22T13:35:41.450Z,28.17
2022-08-22T13:38:17.670Z,28.31
2022-08-22T13:40:54.047Z,28.43
2022-08-22T13:43:30.050Z,28.68
2022-08-22T13:46:06.619Z,28.55
2022-08-22T13:48:50.569Z,28.18
2022-08-22T13:51:24.753Z,27.53
2022-08-22T13:54:20.702Z,27.98
2022-08-22T13:57:08.766Z,27.47
2022-08-22T13:59:52.544Z,27.24
2022-08-22T14:02:34.098Z,28.01
2022-08-22T14:05:06.795Z,27.94
2022-08-22T14:07:38.703Z,27.73
2022-08-22T14:10:14.817Z,27.92
2022-08-22T14:12:53.353Z,27.90
2022-08-22T14:15:25.894Z,27.50
2022-08-22T14:18:09.034Z,27.48
2022-08-22T14:20:39.561Z,27.55
2022-08-22T14:23:16.275Z,28.02
2022-08-22T14:25:43.637Z,27.49
2022-08-22T14:28:22.224Z,27.42
2022-08-22T14:31:03.581Z,27.49
2022-08-22T14:33:46.792Z,27.85
2022-08-22T14:36:28.811Z,27.77
2022-08-22T14:39:06.982Z,27.37
2022-08-22T14:41:52.621Z,27.52
2022-08-22T14:44:32.370Z,27.66
2022-08-22T14:47:04.274Z,27.55
2022-08-22T14:49:49.227Z,27.34
2022-08-22T14:52:40.573Z,26.91
2022-08-22T14:55:26.353Z,26.90
2022-08-22T14:58:03.394Z,27.19
2022-08-22T15:00:33.224Z,26.84
2022-08-22T15:03:22.338Z,27.04
2022-08-22T15:06:14.564Z,30.63
2022-08-22T15:08:46.262Z,31.19
2022-08-22T15:11:22.149Z,31.09
2022-08-22T15:13:55.282Z,30.75
2022-08-22T15:16:29.279Z,30.93
2022-08-22T15:18:55.835Z,30.60
2022-08-22T15:21:26.056Z,30.57
2022-08-22T15:23:56.146Z,30.62
2022-08-22T15:26:26.830Z,30.68
2022-08-22T15:29:08.807Z,30.27
2022-08-22T15:31:39.755Z,30.72
2022-08-22T15:34:21.486Z,30.84
2022-08-22T15:37:08.310Z,30.92
2022-08-22T15:39:59.964Z,30.51
2022-08-22T15:42:57.083Z,31.40
2022-08-22T15:45:37.660Z,31.74
2022-08-22T15:48:09.840Z,32.08
2022-08-22T15:50:55.884Z,31.60
2022-08-22T15:53:29.301Z,32.19
2022-08-22T15:56:25.934Z,32.50
2022-08-22T15:59:18.196Z,31.54
2022-08-22T16:01:52.334Z,31.09
2022-08-22T16:04:34.166Z,31.46
2022-08-22T16:07:02.783Z,31.29
2022-08-22T16:09:46.254Z,31.14
2022-08-22T16:12:31.661Z,32.12
2022-08-22T16:15:00.423Z,31.44
2022-08-22T16:17:29.608Z,31.00
2022-08-22T16:20:22.021Z,30.69
2022-08-22T16:23:08.907Z,31.44
2022-08-22T16:25:44.400Z,30.87
2022-08-22T16:28:56.239Z,31.56
2022-08-22T16:31:41.466Z,31.19
2022-08-22T16:34:16.804Z,31.91
2022-08-22T16:36:49.360Z,31.20
2022-08-22T16:39:21.900Z,31.09
2022-08-22T16:42:14.408Z,31.07
2022-08-22T16:44:40.745Z,31.58
2022-08-22T16:47:15.764Z,30.86
2022-08-22T16:49:51.372Z,31.28
2022-08-22T16:52:20.944Z,30.99
2022-08-22T16:54:49.673Z,31.42
2022-08-22T16:57:22.257Z,31.47
2022-08-22T17:00:12.189Z,31.86
2022-08-22T17:03:05.954Z,31.59
2022-08-22T17:05:53.558Z,32.00
2022-08-22T17:08:35.322Z,32.34
2022-08-22T17:11:14.081Z,32.01
2022-08-22T17:14:02.342Z,31.97
2022-08-22T17:16:53.876Z,31.18
2022-08-22T17:19:24.552Z,31.45
2022-08-22T17:21:56.216Z,31.51
2022-08-22T17:24:33.984Z,31.44
2022-08-22T17:27:06.848Z,32.00
2022-08-22T17:30:13.493Z,31.79
2022-08-22T17:33:01.061Z,31.68
2022-08-22T17:35:33.637Z,32.05
2022-08-22T17:38:00.194Z,31.93
2022-08-22T17:40:56.301Z,32.09
2022-08-22T17:43:26.972Z,32.23
2022-08-22T17:46:07.155Z,32.24
2022-08-22T17:48:53.537Z,31.93
2022-08-22T17:51:41.362Z,32.33
2022-08-22T17:54:13.568Z,32.22
2022-08-22T17:57:05.262Z,32.60
2022-08-22T17:59:38.671Z,32.99
2022-08-22T18:02:39.344Z,33.37
2022-08-22T18:05:19.181Z,33.61
2022-08-22T18:08:02.263Z,33.66
2022-08-22T18:10:50.122Z,33.78
2022-08-22T18:13:32.021Z,34.19
2022-08-22T18:16:03.813Z,33.99
2022-08-22T18:18:49.527Z,34.13
2022-08-22T18:21:22.474Z,34.35
2022-08-22T18:23:55.748Z,35.18
2022-08-22T18:26:34.847Z,35.02
2022-08-22T18:29:17.668Z,35.54
2022-08-22T18:32:11.159Z,36.64
2022-08-22T18:34:56.504Z,37.30
2022-08-22T18:37:44.957Z,37.41
2022-08-22T18:40:23.252Z,38.22
2022-08-22T18:43:15.099Z,38.29
2022-08-22T18:45:47.540Z,38.93
2022-08-22T18:49:05.338Z,39.36
2022-08-22T18:51:38.371Z,39.25
2022-08-22T18:54:04.999Z,39.55
2022-08-22T18:56:31.326Z,39.79
2022-08-22T18:59:09.658Z,40.12
2022-08-22T19:01:44.611Z,39.91
2022-08-22T19:04:26.167Z,40.27
2022-08-22T19:07:23.271Z,40.72
2022-08-22T19:10:20.572Z,41.06
2022-08-22T19:13:01.986Z,41.33
2022-08-22T19:15:53.019Z,40.92
2022-08-22T19:18:36.214Z,40.92
2022-08-22T19:21:33.235Z,40.90
2022-08-22T19:24:00.321Z,41.37
2022-08-22T19:26:36.259Z,41.41
2022-08-22T19:29:25.593Z,42.10
2022-08-22T19:31:54.564Z,41.83
2022-08-22T19:34:32.009Z,41.99
2022-08-22T19:37:32.300Z,42.02
2022-08-22T19:40:07.814Z,42.61
2022-08-22T19:42:38.058Z,42.92
2022-08-22T19:45:20.199Z,42.29
2022-08-22T19:47:56.829Z,42.42
2022-08-22T19:50:23.478Z,42.74
2022-08-22T19:53:24.325Z,43.86
2022-08-22T19:56:15.378Z,43.37
2022-08-22T19:59:06.700Z,43.73
2022-08-22T20:01:58.129Z,43.24
2022-08-22T20:04:48.729Z,43.15
2022-08-22T20:07:45.518Z,43.74
2022-08-22T20:10:42.420Z,43.25
2022-08-22T20:13:24.475Z,44.30
2022-08-22T20:16:19.711Z,44.70
2022-08-22T20:19:05.503Z,44.87
2022-08-22T20:21:50.977Z,44.68
2022-08-22T20:24:42.570Z,45.35
2022-08-22T20:27:22.903Z,44.76
2022-08-22T20:29:55.349Z,44.90
2022-08-22T20:32:24.378Z,45.15
2022-08-22T20:34:55.236Z,45.80
2022-08-22T20:37:40.181Z,44.82
2022-08-22T20:40:54.868Z,45.78
2022-08-22T20:43:31.653Z,45.92
2022-08-22T20:46:18.897Z,46.53
2022-08-22T20:48:47.673Z,46.40
2022-08-22T20:51:17.721Z,45.97
2022-08-22T20:53:55.720Z,47.23
2022-08-22T20:56:52.791Z,47.01
2022-08-22T20:59:37.324Z,48.06
2022-08-22T21:02:10.440Z,48.22
2022-08-22T21:05:02.683Z,47.97
2022-08-22T21:07:51.382Z,48.98
2022-08-22T21:10:46.587Z,49.36
2022-08-22T21:13:47.004Z,50.06
2022-08-22T21:16:20.469Z,49.97
2022-08-22T21:18:53.070Z,49.82
2022-08-22T21:21:25.608Z,50.21
2022-08-22T21:24:01.482Z,50.74
2022-08-22T21:26:36.432Z,50.79
2022-08-22T21:29:05.681Z,50.35
2022-08-22T21:32:04.696Z,50.27
2022-08-22T21:34:36.496Z,51.15
2022-08-22T21:37:12.414Z,51.24
2022-08-22T21:39:45.812Z,51.32
2022-08-22T21:42:37.120Z,51.69
2022-08-22T21:45:07.679Z,51.79
2022-08-22T21:47:37.360Z,52.07
2022-08-22T21:50:12.809Z,52.83
2022-08-22T21:52:59.707Z,52.41
2022-08-22T21:55:34.575Z,52.77
2022-08-22T21:58:04.658Z,52.84
2022-08-22T22:00:54.694Z,53.31
2022-08-22T22:03:29.611Z,53.86
2022-08-22T22:06:01.460Z,53.75
2022-08-22T22:08:29.945Z,54.01
2022-08-22T22:11:01.122Z,53.11
2022-08-22T22:13:31.404Z,52.95
2022-08-22T22:15:58.067Z,53.10
2022-08-22T22:18:27.136Z,53.62
2022-08-22T22:20:54.722Z,53.82
2022-08-22T22:23:22.409Z,54.33
2022-08-22T22:25:49.629Z,54.48
2022-08-22T22:28:21.614Z,54.86
2022-08-22T22:30:51.346Z,55.60
2022-08-22T22:33:23.438Z,55.43
2022-08-22T22:35:52.130Z,55.21
2022-08-22T22:38:23.764Z,55.53
2022-08-22T22:40:50.898Z,55.17
2022-08-22T22:43:17.327Z,55.26
2022-08-22T22:45:43.845Z,56.65
2022-08-22T22:48:10.303Z,55.88
2022-08-22T22:50:40.613Z,56.48
2022-08-22T22:53:08.032Z,57.03
2022-08-22T22:55:36.973Z,56.27
2022-08-22T22:58:08.139Z,56.79
2022-08-22T23:00:36.987Z,56.37
2022-08-22T23:03:05.867Z,56.90
2022-08-22T23:05:33.107Z,56.64
2022-08-22T23:08:00.735Z,56.51
2022-08-22T23:10:28.704Z,57.03
2022-08-22T23:12:55.323Z,57.18
2022-08-22T23:15:21.790Z,57.35
2022-08-22T23:17:48.482Z,57.05
2022-08-22T23:20:14.950Z,57.43
2022-08-22T23:22:42.875Z,57.96
2022-08-22T23:25:09.480Z,58.10
2022-08-22T23:27:36.564Z,58.72
2022-08-22T23:30:04.972Z,59.17
2022-08-22T23:32:31.419Z,58.66
2022-08-22T23:34:58.058Z,58.71
2022-08-22T23:37:24.595Z,59.34
2022-08-22T23:39:51.090Z,59.57
2022-08-22T23:42:18.143Z,60.05
2022-08-22T23:44:45.783Z,59.23
2022-08-22T23:47:13.621Z,60.30
2022-08-22T23:49:41.483Z,59.75
2022-08-22T23:52:09.681Z,60.76
2022-08-22T23:54:36.387Z,60.06
2022-08-22T23:57:11.798Z,59.93
2022-08-22T23:59:46.375Z,60.42
